sensor_id;sensor_type;location;lat;lon;timestamp;pressure;altitude;pressure_sealevel;temperature;humidity
28626;BME280;18905;42.668;23.364;2023-09-08T00:02:03;95618.00;;;22.20;100.00
28626;BME280;18905;42.668;23.364;2023-09-08T00:04:29;95614.34;;;22.09;100.00
28626;BME280;18905;42.668;23.364;2023-09-08T00:06:54;95618.53;;;21.96;100.00
28626;BME280;18905;42.668;23.364;2023-09-08T00:09:19;95614.66;;;22.40;100.00
28626;BME280;18905;42.668;23.364;2023-09-08T00:11:45;95614.94;;;22.72;100.00
28626;BME280;18905;42.668;23.364;2023-09-08T00:14:10;95623.78;;;22.95;100.00
28626;BME280;18905;42.668;23.364;2023-09-08T00:16:36;95615.25;;;23.14;100.00
28626;BME280;18905;42.668;23.364;2023-09-08T00:19:02;95604.72;;;23.30;100.00
28626;BME280;18905;42.668;23.364;2023-09-08T00:21:27;95605.81;;;23.18;100.00
28626;BME280;18905;42.668;23.364;2023-09-08T00:23:53;95615.41;;;23.38;100.00
28626;BME280;18905;42.668;23.364;2023-09-08T00:26:19;95613.41;;;23.39;100.00
28626;BME280;18905;42.668;23.364;2023-09-08T00:28:45;95613.84;;;23.41;100.00
28626;BME280;18905;42.668;23.364;2023-09-08T00:31:10;95609.97;;;23.52;100.00
28626;BME280;18905;42.668;23.364;2023-09-08T00:33:36;95595.44;;;22.98;100.00
28626;BME280;18905;42.668;23.364;2023-09-08T00:36:02;95611.41;;;22.71;100.00
28626;BME280;18905;42.668;23.364;2023-09-08T00:38:27;95604.44;;;22.41;100.00
28626;BME280;18905;42.668;23.364;2023-09-08T00:40:55;95608.63;;;22.68;100.00
28626;BME280;18905;42.668;23.364;2023-09-08T00:43:27;95608.72;;;22.78;100.00
28626;BME280;18905;42.668;23.364;2023-09-08T00:45:53;95607.97;;;22.85;100.00
28626;BME280;18905;42.668;23.364;2023-09-08T00:48:19;95615.00;;;22.82;100.00
28626;BME280;18905;42.668;23.364;2023-09-08T00:50:45;95613.22;;;22.53;100.00
28626;BME280;18905;42.668;23.364;2023-09-08T00:53:10;95590.94;;;22.25;100.00
28626;BME280;18905;42.668;23.364;2023-09-08T00:55:36;95606.59;;;22.18;100.00
28626;BME280;18905;42.668;23.364;2023-09-08T00:58:03;95600.38;;;21.88;100.00
28626;BME280;18905;42.668;23.364;2023-09-08T01:00:29;95612.53;;;21.87;100.00
28626;BME280;18905;42.668;23.364;2023-09-08T01:02:54;95620.06;;;21.60;100.00
28626;BME280;18905;42.668;23.364;2023-09-08T01:05:20;95608.28;;;21.93;100.00
28626;BME280;18905;42.668;23.364;2023-09-08T01:07:46;95605.63;;;21.67;100.00
28626;BME280;18905;42.668;23.364;2023-09-08T01:10:13;95611.19;;;21.41;100.00
28626;BME280;18905;42.668;23.364;2023-09-08T01:12:38;95615.56;;;21.16;100.00
28626;BME280;18905;42.668;23.364;2023-09-08T01:15:05;95612.34;;;21.10;100.00
28626;BME280;18905;42.668;23.364;2023-09-08T01:17:31;95608.78;;;21.36;100.00
28626;BME280;18905;42.668;23.364;2023-09-08T01:20:07;95609.78;;;21.24;100.00
28626;BME280;18905;42.668;23.364;2023-09-08T01:27:39;95616.03;;;21.51;100.00
28626;BME280;18905;42.668;23.364;2023-09-08T01:30:06;95588.97;;;21.53;100.00
28626;BME280;18905;42.668;23.364;2023-09-08T01:32:32;95600.53;;;21.69;100.00
28626;BME280;18905;42.668;23.364;2023-09-08T01:34:58;95594.31;;;21.72;100.00
28626;BME280;18905;42.668;23.364;2023-09-08T01:37:25;95596.38;;;21.78;100.00
28626;BME280;18905;42.668;23.364;2023-09-08T01:39:51;95595.19;;;21.79;100.00
28626;BME280;18905;42.668;23.364;2023-09-08T01:42:16;95591.25;;;21.77;100.00
28626;BME280;18905;42.668;23.364;2023-09-08T01:44:42;95590.28;;;21.66;100.00
28626;BME280;18905;42.668;23.364;2023-09-08T01:47:07;95585.13;;;21.61;100.00
28626;BME280;18905;42.668;23.364;2023-09-08T01:49:32;95593.53;;;21.71;100.00
28626;BME280;18905;42.668;23.364;2023-09-08T01:51:58;95589.63;;;21.43;100.00
28626;BME280;18905;42.668;23.364;2023-09-08T01:54:23;95583.34;;;21.13;100.00
28626;BME280;18905;42.668;23.364;2023-09-08T01:56:49;95592.63;;;21.01;100.00
28626;BME280;18905;42.668;23.364;2023-09-08T01:59:15;95586.44;;;21.08;100.00
28626;BME280;18905;42.668;23.364;2023-09-08T02:01:40;95593.00;;;20.51;100.00
28626;BME280;18905;42.668;23.364;2023-09-08T02:04:06;95588.69;;;20.50;100.00
28626;BME280;18905;42.668;23.364;2023-09-08T02:06:31;95592.91;;;20.70;100.00
28626;BME280;18905;42.668;23.364;2023-09-08T02:08:56;95580.00;;;20.70;100.00
28626;BME280;18905;42.668;23.364;2023-09-08T02:11:22;95584.78;;;21.03;100.00
28626;BME280;18905;42.668;23.364;2023-09-08T02:13:47;95584.94;;;21.14;100.00
28626;BME280;18905;42.668;23.364;2023-09-08T02:16:16;95575.53;;;21.15;100.00
28626;BME280;18905;42.668;23.364;2023-09-08T02:18:42;95577.56;;;21.21;100.00
28626;BME280;18905;42.668;23.364;2023-09-08T02:21:08;95557.59;;;21.21;100.00
28626;BME280;18905;42.668;23.364;2023-09-08T02:23:33;95566.97;;;21.20;100.00
28626;BME280;18905;42.668;23.364;2023-09-08T02:25:59;95563.63;;;21.33;100.00
28626;BME280;18905;42.668;23.364;2023-09-08T02:28:24;95566.72;;;21.32;100.00
28626;BME280;18905;42.668;23.364;2023-09-08T02:30:50;95563.97;;;20.76;100.00
28626;BME280;18905;42.668;23.364;2023-09-08T02:33:15;95572.16;;;20.72;100.00
28626;BME280;18905;42.668;23.364;2023-09-08T02:35:40;95572.09;;;20.65;100.00
28626;BME280;18905;42.668;23.364;2023-09-08T02:38:06;95577.69;;;20.24;100.00
28626;BME280;18905;42.668;23.364;2023-09-08T02:40:32;95572.91;;;19.98;100.00
28626;BME280;18905;42.668;23.364;2023-09-08T02:43:02;95558.66;;;19.67;100.00
28626;BME280;18905;42.668;23.364;2023-09-08T02:45:28;95578.13;;;19.43;100.00
28626;BME280;18905;42.668;23.364;2023-09-08T02:47:53;95571.16;;;19.11;100.00
28626;BME280;18905;42.668;23.364;2023-09-08T02:50:19;95584.22;;;18.98;100.00
28626;BME280;18905;42.668;23.364;2023-09-08T02:52:44;95568.78;;;18.90;100.00
28626;BME280;18905;42.668;23.364;2023-09-08T02:55:10;95579.59;;;19.02;100.00
28626;BME280;18905;42.668;23.364;2023-09-08T02:57:36;95571.31;;;18.80;100.00
28626;BME280;18905;42.668;23.364;2023-09-08T03:00:03;95565.97;;;18.87;100.00
28626;BME280;18905;42.668;23.364;2023-09-08T03:02:30;95558.09;;;18.66;100.00
28626;BME280;18905;42.668;23.364;2023-09-08T03:04:55;95567.47;;;18.84;100.00
28626;BME280;18905;42.668;23.364;2023-09-08T03:07:21;95569.25;;;19.11;100.00
28626;BME280;18905;42.668;23.364;2023-09-08T03:09:46;95567.25;;;19.27;100.00
28626;BME280;18905;42.668;23.364;2023-09-08T03:12:12;95559.81;;;19.09;100.00
28626;BME280;18905;42.668;23.364;2023-09-08T03:14:37;95556.25;;;19.08;100.00
28626;BME280;18905;42.668;23.364;2023-09-08T03:17:03;95564.50;;;19.27;100.00
28626;BME280;18905;42.668;23.364;2023-09-08T03:19:28;95558.00;;;19.16;100.00
28626;BME280;18905;42.668;23.364;2023-09-08T03:21:53;95564.78;;;19.22;100.00
28626;BME280;18905;42.668;23.364;2023-09-08T03:24:19;95560.16;;;19.07;100.00
28626;BME280;18905;42.668;23.364;2023-09-08T03:26:44;95566.53;;;19.30;100.00
28626;BME280;18905;42.668;23.364;2023-09-08T03:29:10;95576.31;;;19.31;100.00
28626;BME280;18905;42.668;23.364;2023-09-08T03:31:35;95573.38;;;19.40;100.00
28626;BME280;18905;42.668;23.364;2023-09-08T03:34:00;95567.31;;;19.50;100.00
28626;BME280;18905;42.668;23.364;2023-09-08T03:36:26;95568.25;;;19.57;100.00
28626;BME280;18905;42.668;23.364;2023-09-08T03:38:51;95566.56;;;19.72;100.00
28626;BME280;18905;42.668;23.364;2023-09-08T03:41:16;95569.91;;;19.84;100.00
28626;BME280;18905;42.668;23.364;2023-09-08T03:43:42;95566.16;;;19.73;100.00
28626;BME280;18905;42.668;23.364;2023-09-08T03:46:07;95558.25;;;19.87;100.00
28626;BME280;18905;42.668;23.364;2023-09-08T03:48:33;95569.75;;;19.96;100.00
28626;BME280;18905;42.668;23.364;2023-09-08T03:50:58;95570.47;;;20.16;100.00
28626;BME280;18905;42.668;23.364;2023-09-08T03:53:24;95565.31;;;20.33;100.00
28626;BME280;18905;42.668;23.364;2023-09-08T03:55:49;95558.84;;;20.45;100.00
28626;BME280;18905;42.668;23.364;2023-09-08T03:58:15;95561.56;;;20.45;100.00
28626;BME280;18905;42.668;23.364;2023-09-08T04:00:41;95564.06;;;20.53;100.00
28626;BME280;18905;42.668;23.364;2023-09-08T04:03:07;95556.53;;;20.50;100.00
28626;BME280;18905;42.668;23.364;2023-09-08T04:05:32;95539.94;;;20.40;100.00
28626;BME280;18905;42.668;23.364;2023-09-08T04:07:58;95558.72;;;20.64;100.00
28626;BME280;18905;42.668;23.364;2023-09-08T04:10:23;95576.91;;;21.02;100.00
28626;BME280;18905;42.668;23.364;2023-09-08T04:12:48;95563.78;;;21.14;100.00
28626;BME280;18905;42.668;23.364;2023-09-08T04:15:14;95559.06;;;21.15;100.00
28626;BME280;18905;42.668;23.364;2023-09-08T04:17:39;95556.19;;;21.04;100.00
28626;BME280;18905;42.668;23.364;2023-09-08T04:20:05;95569.63;;;21.13;100.00
28626;BME280;18905;42.668;23.364;2023-09-08T04:22:32;95565.38;;;21.19;100.00
28626;BME280;18905;42.668;23.364;2023-09-08T04:24:57;95564.66;;;21.22;100.00
28626;BME280;18905;42.668;23.364;2023-09-08T04:27:23;95564.94;;;21.13;100.00
28626;BME280;18905;42.668;23.364;2023-09-08T04:29:48;95574.69;;;21.11;100.00
28626;BME280;18905;42.668;23.364;2023-09-08T04:32:14;95569.19;;;21.11;100.00
28626;BME280;18905;42.668;23.364;2023-09-08T04:34:41;95575.31;;;21.27;100.00
28626;BME280;18905;42.668;23.364;2023-09-08T04:37:07;95572.19;;;21.61;100.00
28626;BME280;18905;42.668;23.364;2023-09-08T04:39:33;95569.47;;;22.41;100.00
28626;BME280;18905;42.668;23.364;2023-09-08T04:41:59;95571.03;;;23.78;100.00
28626;BME280;18905;42.668;23.364;2023-09-08T04:44:25;95570.66;;;25.51;100.00
28626;BME280;18905;42.668;23.364;2023-09-08T04:46:51;95572.22;;;26.82;92.67
28626;BME280;18905;42.668;23.364;2023-09-08T04:49:17;95566.91;;;26.58;89.89
28626;BME280;18905;42.668;23.364;2023-09-08T04:51:43;95558.38;;;25.59;94.95
28626;BME280;18905;42.668;23.364;2023-09-08T04:54:08;95573.13;;;25.11;100.00
28626;BME280;18905;42.668;23.364;2023-09-08T04:56:33;95570.41;;;24.58;100.00
28626;BME280;18905;42.668;23.364;2023-09-08T04:58:59;95566.47;;;24.42;100.00
28626;BME280;18905;42.668;23.364;2023-09-08T05:01:26;95559.75;;;24.29;100.00
28626;BME280;18905;42.668;23.364;2023-09-08T05:03:52;95572.75;;;24.04;100.00
28626;BME280;18905;42.668;23.364;2023-09-08T05:06:17;95569.84;;;23.69;100.00
28626;BME280;18905;42.668;23.364;2023-09-08T05:08:42;95565.88;;;23.56;100.00
28626;BME280;18905;42.668;23.364;2023-09-08T05:11:09;95563.91;;;23.56;100.00
28626;BME280;18905;42.668;23.364;2023-09-08T05:13:35;95547.19;;;23.18;100.00
28626;BME280;18905;42.668;23.364;2023-09-08T05:16:00;95576.97;;;22.95;100.00
28626;BME280;18905;42.668;23.364;2023-09-08T05:18:36;95581.59;;;22.37;100.00
28626;BME280;18905;42.668;23.364;2023-09-08T05:21:01;95577.69;;;22.85;100.00
28626;BME280;18905;42.668;23.364;2023-09-08T05:23:27;95584.59;;;23.19;100.00
28626;BME280;18905;42.668;23.364;2023-09-08T05:25:52;95579.16;;;23.33;100.00
28626;BME280;18905;42.668;23.364;2023-09-08T05:28:18;95576.34;;;23.19;100.00
28626;BME280;18905;42.668;23.364;2023-09-08T05:30:43;95576.03;;;23.38;100.00
28626;BME280;18905;42.668;23.364;2023-09-08T05:33:08;95572.16;;;23.53;100.00
28626;BME280;18905;42.668;23.364;2023-09-08T05:35:34;95583.63;;;23.72;100.00
28626;BME280;18905;42.668;23.364;2023-09-08T05:37:59;95577.34;;;23.72;100.00
28626;BME280;18905;42.668;23.364;2023-09-08T05:40:25;95567.47;;;23.67;100.00
28626;BME280;18905;42.668;23.364;2023-09-08T05:42:51;95576.59;;;23.85;100.00
28626;BME280;18905;42.668;23.364;2023-09-08T05:45:17;95577.06;;;24.05;100.00
28626;BME280;18905;42.668;23.364;2023-09-08T05:47:42;95588.72;;;23.63;100.00
28626;BME280;18905;42.668;23.364;2023-09-08T05:50:08;95586.41;;;23.72;100.00
28626;BME280;18905;42.668;23.364;2023-09-08T05:52:33;95578.06;;;23.58;100.00
28626;BME280;18905;42.668;23.364;2023-09-08T05:54:59;95588.09;;;24.05;100.00
28626;BME280;18905;42.668;23.364;2023-09-08T05:57:24;95590.03;;;23.90;98.48
28626;BME280;18905;42.668;23.364;2023-09-08T05:59:49;95589.53;;;23.64;97.65
28626;BME280;18905;42.668;23.364;2023-09-08T06:02:15;95582.19;;;24.10;99.20
28626;BME280;18905;42.668;23.364;2023-09-08T06:04:40;95592.47;;;24.48;93.35
28626;BME280;18905;42.668;23.364;2023-09-08T06:07:05;95587.78;;;24.69;90.33
28626;BME280;18905;42.668;23.364;2023-09-08T06:09:32;95593.25;;;25.04;88.35
28626;BME280;18905;42.668;23.364;2023-09-08T06:11:57;95596.78;;;25.33;85.33
28626;BME280;18905;42.668;23.364;2023-09-08T06:14:22;95593.19;;;25.46;80.37
28626;BME280;18905;42.668;23.364;2023-09-08T06:16:48;95588.91;;;25.28;83.98
28626;BME280;18905;42.668;23.364;2023-09-08T06:19:13;95583.91;;;25.88;80.39
28626;BME280;18905;42.668;23.364;2023-09-08T06:21:39;95595.81;;;25.81;82.53
28626;BME280;18905;42.668;23.364;2023-09-08T06:24:04;95593.03;;;26.53;74.12
28626;BME280;18905;42.668;23.364;2023-09-08T06:26:30;95598.50;;;26.64;71.21
28626;BME280;18905;42.668;23.364;2023-09-08T06:28:55;95601.72;;;27.03;70.21
28626;BME280;18905;42.668;23.364;2023-09-08T06:31:20;95596.84;;;27.14;66.10
28626;BME280;18905;42.668;23.364;2023-09-08T06:33:46;95593.69;;;27.52;65.97
28626;BME280;18905;42.668;23.364;2023-09-08T06:36:11;95603.50;;;27.60;62.48
28626;BME280;18905;42.668;23.364;2023-09-08T06:38:36;95602.88;;;27.49;63.22
28626;BME280;18905;42.668;23.364;2023-09-08T06:41:08;95608.63;;;28.29;61.00
28626;BME280;18905;42.668;23.364;2023-09-08T06:43:34;95607.09;;;28.78;55.37
28626;BME280;18905;42.668;23.364;2023-09-08T06:46:00;95610.16;;;29.10;56.74
28626;BME280;18905;42.668;23.364;2023-09-08T06:48:25;95606.06;;;28.68;55.59
28626;BME280;18905;42.668;23.364;2023-09-08T06:50:53;95611.56;;;28.45;58.37
28626;BME280;18905;42.668;23.364;2023-09-08T06:53:19;95619.13;;;28.71;57.36
28626;BME280;18905;42.668;23.364;2023-09-08T06:55:44;95612.47;;;28.88;53.32
28626;BME280;18905;42.668;23.364;2023-09-08T06:58:10;95613.28;;;28.62;53.49
28626;BME280;18905;42.668;23.364;2023-09-08T07:00:35;95608.88;;;27.41;56.50
28626;BME280;18905;42.668;23.364;2023-09-08T07:03:01;95613.63;;;27.44;57.76
28626;BME280;18905;42.668;23.364;2023-09-08T07:05:27;95612.38;;;27.85;56.81
28626;BME280;18905;42.668;23.364;2023-09-08T07:07:55;95612.13;;;27.69;55.25
28626;BME280;18905;42.668;23.364;2023-09-08T07:10:24;95610.97;;;27.67;54.78
28626;BME280;18905;42.668;23.364;2023-09-08T07:12:49;95600.91;;;27.46;55.07
28626;BME280;18905;42.668;23.364;2023-09-08T07:15:15;95622.72;;;27.81;53.41
28626;BME280;18905;42.668;23.364;2023-09-08T07:17:40;95612.09;;;28.06;53.99
28626;BME280;18905;42.668;23.364;2023-09-08T07:20:08;95617.03;;;28.22;52.80
28626;BME280;18905;42.668;23.364;2023-09-08T07:22:33;95613.09;;;28.19;51.66
28626;BME280;18905;42.668;23.364;2023-09-08T07:24:58;95595.97;;;28.24;51.20
28626;BME280;18905;42.668;23.364;2023-09-08T07:27:24;95607.53;;;28.50;50.03
28626;BME280;18905;42.668;23.364;2023-09-08T07:29:49;95605.56;;;28.73;49.73
28626;BME280;18905;42.668;23.364;2023-09-08T07:32:16;95600.94;;;28.90;49.46
28626;BME280;18905;42.668;23.364;2023-09-08T07:34:41;95602.88;;;28.93;49.62
28626;BME280;18905;42.668;23.364;2023-09-08T07:37:07;95601.50;;;29.04;48.79
28626;BME280;18905;42.668;23.364;2023-09-08T07:39:32;95593.06;;;28.62;48.27
28626;BME280;18905;42.668;23.364;2023-09-08T07:41:58;95601.22;;;27.89;50.10
28626;BME280;18905;42.668;23.364;2023-09-08T07:44:24;95602.03;;;28.46;48.79
28626;BME280;18905;42.668;23.364;2023-09-08T07:46:49;95586.19;;;28.93;47.00
28626;BME280;18905;42.668;23.364;2023-09-08T07:49:19;95582.88;;;29.01;46.69
28626;BME280;18905;42.668;23.364;2023-09-08T07:51:45;95600.56;;;28.88;47.84
28626;BME280;18905;42.668;23.364;2023-09-08T07:54:11;95596.75;;;29.05;47.96
28626;BME280;18905;42.668;23.364;2023-09-08T07:56:36;95602.31;;;28.25;48.30
28626;BME280;18905;42.668;23.364;2023-09-08T07:59:02;95588.72;;;28.30;48.21
28626;BME280;18905;42.668;23.364;2023-09-08T08:01:27;95594.75;;;27.28;51.12
28626;BME280;18905;42.668;23.364;2023-09-08T08:03:53;95595.88;;;26.43;54.56
28626;BME280;18905;42.668;23.364;2023-09-08T08:06:18;95586.56;;;26.16;57.15
28626;BME280;18905;42.668;23.364;2023-09-08T08:08:44;95590.94;;;26.10;57.07
28626;BME280;18905;42.668;23.364;2023-09-08T08:11:13;95591.03;;;25.96;58.18
28626;BME280;18905;42.668;23.364;2023-09-08T08:13:38;95575.75;;;26.32;57.48
28626;BME280;18905;42.668;23.364;2023-09-08T08:16:04;95572.47;;;26.51;56.10
28626;BME280;18905;42.668;23.364;2023-09-08T08:18:29;95579.91;;;27.05;53.99
28626;BME280;18905;42.668;23.364;2023-09-08T08:20:55;95578.72;;;27.46;53.90
28626;BME280;18905;42.668;23.364;2023-09-08T08:23:20;95590.28;;;27.71;53.67
28626;BME280;18905;42.668;23.364;2023-09-08T08:25:45;95580.59;;;27.90;49.34
28626;BME280;18905;42.668;23.364;2023-09-08T08:28:11;95562.59;;;27.68;49.90
28626;BME280;18905;42.668;23.364;2023-09-08T08:30:36;95558.72;;;27.28;50.48
28626;BME280;18905;42.668;23.364;2023-09-08T08:33:02;95558.66;;;27.35;50.57
28626;BME280;18905;42.668;23.364;2023-09-08T08:35:29;95562.13;;;27.43;49.89
28626;BME280;18905;42.668;23.364;2023-09-08T08:37:54;95566.13;;;27.38;51.04
28626;BME280;18905;42.668;23.364;2023-09-08T08:40:20;95561.50;;;27.62;46.56
28626;BME280;18905;42.668;23.364;2023-09-08T08:42:46;95570.50;;;28.29;48.35
28626;BME280;18905;42.668;23.364;2023-09-08T08:45:11;95560.22;;;28.26;44.78
28626;BME280;18905;42.668;23.364;2023-09-08T08:47:37;95563.63;;;28.41;46.44
28626;BME280;18905;42.668;23.364;2023-09-08T08:50:03;95559.22;;;27.87;46.70
28626;BME280;18905;42.668;23.364;2023-09-08T08:52:30;95564.09;;;28.06;47.83
28626;BME280;18905;42.668;23.364;2023-09-08T08:54:56;95572.63;;;28.72;46.67
28626;BME280;18905;42.668;23.364;2023-09-08T08:57:22;95574.28;;;27.86;46.00
28626;BME280;18905;42.668;23.364;2023-09-08T08:59:48;95562.72;;;27.57;48.29
28626;BME280;18905;42.668;23.364;2023-09-08T09:02:16;95567.50;;;27.57;51.41
28626;BME280;18905;42.668;23.364;2023-09-08T09:04:42;95562.81;;;27.50;52.09
28626;BME280;18905;42.668;23.364;2023-09-08T09:07:08;95577.31;;;27.65;48.97
28626;BME280;18905;42.668;23.364;2023-09-08T09:09:33;95572.81;;;27.44;50.14
28626;BME280;18905;42.668;23.364;2023-09-08T09:11:59;95540.53;;;27.57;49.70
28626;BME280;18905;42.668;23.364;2023-09-08T09:14:25;95573.28;;;27.69;49.17
28626;BME280;18905;42.668;23.364;2023-09-08T09:16:50;95568.94;;;27.68;47.97
28626;BME280;18905;42.668;23.364;2023-09-08T09:19:22;95565.47;;;27.61;47.90
28626;BME280;18905;42.668;23.364;2023-09-08T09:21:53;95557.50;;;27.29;48.89
28626;BME280;18905;42.668;23.364;2023-09-08T09:24:48;95563.56;;;27.21;48.72
28626;BME280;18905;42.668;23.364;2023-09-08T09:27:14;95571.91;;;27.14;50.28
28626;BME280;18905;42.668;23.364;2023-09-08T09:29:47;95557.03;;;26.97;50.02
28626;BME280;18905;42.668;23.364;2023-09-08T09:32:15;95554.50;;;27.13;49.86
28626;BME280;18905;42.668;23.364;2023-09-08T09:34:48;95553.50;;;26.93;51.91
28626;BME280;18905;42.668;23.364;2023-09-08T09:37:14;95565.34;;;27.38;51.44
28626;BME280;18905;42.668;23.364;2023-09-08T09:39:39;95558.16;;;27.44;51.62
28626;BME280;18905;42.668;23.364;2023-09-08T09:42:05;95560.06;;;27.84;50.46
28626;BME280;18905;42.668;23.364;2023-09-08T09:44:31;95549.47;;;27.72;50.10
28626;BME280;18905;42.668;23.364;2023-09-08T09:46:56;95544.16;;;26.77;52.39
28626;BME280;18905;42.668;23.364;2023-09-08T09:49:22;95555.53;;;26.42;53.83
28626;BME280;18905;42.668;23.364;2023-09-08T09:51:50;95550.94;;;26.18;54.82
28626;BME280;18905;42.668;23.364;2023-09-08T09:54:19;95555.81;;;26.54;54.16
28626;BME280;18905;42.668;23.364;2023-09-08T09:56:45;95546.06;;;25.71;56.67
28626;BME280;18905;42.668;23.364;2023-09-08T09:59:13;95556.16;;;26.05;57.96
28626;BME280;18905;42.668;23.364;2023-09-08T10:01:40;95546.06;;;26.39;56.45
28626;BME280;18905;42.668;23.364;2023-09-08T10:04:06;95542.47;;;26.42;55.32
28626;BME280;18905;42.668;23.364;2023-09-08T10:06:34;95539.44;;;26.26;57.48
28626;BME280;18905;42.668;23.364;2023-09-08T10:09:01;95522.81;;;25.61;59.40
28626;BME280;18905;42.668;23.364;2023-09-08T10:11:29;95528.31;;;25.65;60.40
28626;BME280;18905;42.668;23.364;2023-09-08T10:13:59;95512.44;;;25.76;59.94
28626;BME280;18905;42.668;23.364;2023-09-08T10:16:27;95504.47;;;25.88;58.78
28626;BME280;18905;42.668;23.364;2023-09-08T10:18:54;95527.66;;;26.12;59.18
28626;BME280;18905;42.668;23.364;2023-09-08T10:21:21;95402.44;;;25.43;58.45
28626;BME280;18905;42.668;23.364;2023-09-08T10:24:04;95396.94;;;25.36;58.42
28626;BME280;18905;42.668;23.364;2023-09-08T10:26:34;95469.03;;;25.73;59.86
28626;BME280;18905;42.668;23.364;2023-09-08T10:31:39;95518.03;;;25.69;61.11
28626;BME280;18905;42.668;23.364;2023-09-08T10:34:04;95494.09;;;25.38;62.86
28626;BME280;18905;42.668;23.364;2023-09-08T10:36:30;95522.41;;;25.63;62.26
28626;BME280;18905;42.668;23.364;2023-09-08T10:39:32;95525.84;;;25.84;63.11
28626;BME280;18905;42.668;23.364;2023-09-08T10:47:23;95504.47;;;24.99;65.85
28626;BME280;18905;42.668;23.364;2023-09-08T10:49:50;95498.88;;;25.20;65.16
28626;BME280;18905;42.668;23.364;2023-09-08T10:52:21;95517.41;;;25.33;64.93
28626;BME280;18905;42.668;23.364;2023-09-08T10:54:53;95520.19;;;25.19;65.19
28626;BME280;18905;42.668;23.364;2023-09-08T10:57:24;95501.72;;;24.95;65.87
28626;BME280;18905;42.668;23.364;2023-09-08T10:59:57;95507.28;;;24.71;66.36
28626;BME280;18905;42.668;23.364;2023-09-08T11:02:42;95502.94;;;24.80;66.92
28626;BME280;18905;42.668;23.364;2023-09-08T11:05:13;95516.72;;;24.98;67.36
28626;BME280;18905;42.668;23.364;2023-09-08T11:07:44;95507.69;;;24.76;68.84
28626;BME280;18905;42.668;23.364;2023-09-08T11:10:10;95512.41;;;24.86;68.62
28626;BME280;18905;42.668;23.364;2023-09-08T11:12:36;95498.94;;;24.99;68.80
28626;BME280;18905;42.668;23.364;2023-09-08T11:15:03;95512.00;;;24.81;68.72
28626;BME280;18905;42.668;23.364;2023-09-08T11:17:34;95506.75;;;25.28;66.39
28626;BME280;18905;42.668;23.364;2023-09-08T11:20:01;95496.91;;;25.24;66.90
28626;BME280;18905;42.668;23.364;2023-09-08T11:22:33;95485.53;;;24.94;67.01
28626;BME280;18905;42.668;23.364;2023-09-08T11:25:01;95495.41;;;24.91;67.19
28626;BME280;18905;42.668;23.364;2023-09-08T11:27:30;95495.03;;;24.86;68.09
28626;BME280;18905;42.668;23.364;2023-09-08T11:29:56;95492.25;;;24.86;69.03
28626;BME280;18905;42.668;23.364;2023-09-08T11:32:22;95478.09;;;24.80;70.35
28626;BME280;18905;42.668;23.364;2023-09-08T11:34:47;95491.75;;;25.22;67.41
28626;BME280;18905;42.668;23.364;2023-09-08T11:37:13;95485.84;;;25.17;68.52
28626;BME280;18905;42.668;23.364;2023-09-08T11:39:44;95484.59;;;25.46;67.34
28626;BME280;18905;42.668;23.364;2023-09-08T11:42:12;95474.13;;;25.78;64.67
28626;BME280;18905;42.668;23.364;2023-09-08T11:44:38;95473.63;;;25.90;63.66
28626;BME280;18905;42.668;23.364;2023-09-08T11:47:10;95479.63;;;25.81;64.24
28626;BME280;18905;42.668;23.364;2023-09-08T11:49:37;95469.78;;;25.73;65.24
28626;BME280;18905;42.668;23.364;2023-09-08T11:52:03;95463.75;;;26.40;63.47
28626;BME280;18905;42.668;23.364;2023-09-08T11:54:31;95459.50;;;26.76;60.70
28626;BME280;18905;42.668;23.364;2023-09-08T11:56:59;95467.34;;;26.81;59.39
28626;BME280;18905;42.668;23.364;2023-09-08T11:59:25;95465.41;;;27.11;60.05
28626;BME280;18905;42.668;23.364;2023-09-08T12:01:51;95468.28;;;27.04;58.71
28626;BME280;18905;42.668;23.364;2023-09-08T12:04:20;95466.19;;;26.34;60.00
28626;BME280;18905;42.668;23.364;2023-09-08T12:06:47;95468.59;;;25.74;63.81
28626;BME280;18905;42.668;23.364;2023-09-08T12:09:13;95462.72;;;25.69;63.04
28626;BME280;18905;42.668;23.364;2023-09-08T12:11:39;95459.28;;;25.51;63.40
28626;BME280;18905;42.668;23.364;2023-09-08T12:14:11;95458.63;;;25.87;62.70
28626;BME280;18905;42.668;23.364;2023-09-08T12:16:36;95440.88;;;26.36;60.57
28626;BME280;18905;42.668;23.364;2023-09-08T12:19:02;95453.59;;;26.30;61.20
28626;BME280;18905;42.668;23.364;2023-09-08T12:21:27;95463.63;;;26.13;60.26
28626;BME280;18905;42.668;23.364;2023-09-08T12:23:53;95456.69;;;25.84;60.02
28626;BME280;18905;42.668;23.364;2023-09-08T12:26:20;95427.47;;;25.80;61.02
28626;BME280;18905;42.668;23.364;2023-09-08T12:28:46;95430.03;;;26.52;58.79
28626;BME280;18905;42.668;23.364;2023-09-08T12:31:15;95437.31;;;26.76;58.22
28626;BME280;18905;42.668;23.364;2023-09-08T12:33:43;95424.09;;;26.90;56.86
28626;BME280;18905;42.668;23.364;2023-09-08T12:36:18;95433.91;;;26.61;57.43
28626;BME280;18905;42.668;23.364;2023-09-08T12:38:50;95440.53;;;26.71;58.33
28626;BME280;18905;42.668;23.364;2023-09-08T12:41:16;95429.22;;;26.58;57.02
28626;BME280;18905;42.668;23.364;2023-09-08T12:43:41;95420.81;;;26.99;57.93
28626;BME280;18905;42.668;23.364;2023-09-08T12:46:07;95421.38;;;27.20;55.98
28626;BME280;18905;42.668;23.364;2023-09-08T12:48:33;95424.56;;;27.15;55.29
28626;BME280;18905;42.668;23.364;2023-09-08T12:50:58;95415.16;;;27.09;56.31
28626;BME280;18905;42.668;23.364;2023-09-08T12:53:23;95411.88;;;27.18;57.72
28626;BME280;18905;42.668;23.364;2023-09-08T12:55:49;95423.31;;;27.53;54.36